createdAt,value
2019-03-29T00:01:12.207Z,72.80
2019-03-29T00:03:40.840Z,72.90
2019-03-29T00:06:09.406Z,73.20
2019-03-29T00:08:38.690Z,73.50
2019-03-29T00:11:07.400Z,73.60
2019-03-29T00:13:35.881Z,73.80
2019-03-29T00:16:04.489Z,74.10
2019-03-29T00:18:32.943Z,74.50
2019-03-29T00:21:01.423Z,75.10
2019-03-29T00:23:29.960Z,75.20
2019-03-29T00:25:59.108Z,75.40
2019-03-29T00:28:27.918Z,75.30
2019-03-29T00:30:56.452Z,75.70
2019-03-29T00:33:24.904Z,75.90
2019-03-29T00:35:53.751Z,76.20
2019-03-29T00:38:22.913Z,76.20
2019-03-29T00:40:51.674Z,76.40
2019-03-29T00:43:20.247Z,76.40
2019-03-29T00:45:48.717Z,76.40
2019-03-29T00:48:17.282Z,76.70
2019-03-29T00:50:45.767Z,76.90
2019-03-29T00:53:14.235Z,76.80
2019-03-29T00:55:42.737Z,76.90
2019-03-29T00:58:11.358Z,77.10
2019-03-29T01:00:39.982Z,77.00
2019-03-29T01:03:08.560Z,77.30
2019-03-29T01:05:37.090Z,77.40
2019-03-29T01:08:08.124Z,77.50
2019-03-29T01:10:35.963Z,77.50
2019-03-29T01:13:04.436Z,77.60
2019-03-29T01:15:32.955Z,78.10
2019-03-29T01:18:01.471Z,78.40
2019-03-29T01:20:29.929Z,78.60
2019-03-29T01:22:58.470Z,78.30
2019-03-29T01:25:26.916Z,78.60
2019-03-29T01:27:55.472Z,79.00
2019-03-29T01:30:23.939Z,78.90
2019-03-29T01:32:52.439Z,78.90
2019-03-29T01:35:20.947Z,79.20
2019-03-29T01:37:49.489Z,79.40
2019-03-29T01:40:18.014Z,79.60
2019-03-29T01:42:46.555Z,79.50
2019-03-29T01:45:15.263Z,79.50
2019-03-29T01:47:43.765Z,80.00
2019-03-29T01:50:12.548Z,80.20
2019-03-29T01:52:41.011Z,80.50
2019-03-29T01:55:09.819Z,80.60
2019-03-29T01:57:38.389Z,80.80
2019-03-29T02:00:09.042Z,80.90
2019-03-29T02:02:37.914Z,81.00
2019-03-29T02:05:08.012Z,80.90
2019-03-29T02:07:38.022Z,80.90
2019-03-29T02:10:09.465Z,81.20
2019-03-29T02:12:37.987Z,81.70
2019-03-29T02:15:08.113Z,81.60
2019-03-29T02:17:37.113Z,81.70
2019-03-29T02:20:07.439Z,81.90
2019-03-29T02:22:36.294Z,82.00
2019-03-29T02:25:07.506Z,82.20
2019-03-29T02:27:36.012Z,82.60
2019-03-29T02:30:08.095Z,82.60
2019-03-29T02:32:36.557Z,82.70
2019-03-29T02:35:05.780Z,82.80
2019-03-29T02:37:34.511Z,82.90
2019-03-29T02:40:03.261Z,83.00
2019-03-29T02:42:31.854Z,83.20
2019-03-29T02:45:00.636Z,82.90
2019-03-29T02:47:29.240Z,83.00
2019-03-29T02:49:57.727Z,83.20
2019-03-29T02:52:26.346Z,83.30
2019-03-29T02:54:54.895Z,83.50
2019-03-29T02:57:23.498Z,83.80
2019-03-29T02:59:51.959Z,83.90
2019-03-29T03:02:26.376Z,84.20
2019-03-29T03:04:56.735Z,84.30
2019-03-29T03:07:29.048Z,83.90
2019-03-29T03:09:59.613Z,83.80
2019-03-29T03:12:36.076Z,84.10
2019-03-29T03:15:06.588Z,84.30
2019-03-29T03:17:35.032Z,84.70
2019-03-29T03:20:14.595Z,84.70
2019-03-29T03:22:41.104Z,84.80
2019-03-29T03:25:10.029Z,85.10
2019-03-29T03:27:38.591Z,85.10
2019-03-29T03:30:12.010Z,85.20
2019-03-29T03:32:40.718Z,85.00
2019-03-29T03:35:10.571Z,85.30
2019-03-29T03:37:39.255Z,85.40
2019-03-29T03:40:09.258Z,85.90
2019-03-29T03:42:37.923Z,85.90
2019-03-29T03:45:10.317Z,86.50
2019-03-29T03:47:39.540Z,86.80
2019-03-29T03:50:10.120Z,87.00
2019-03-29T03:52:38.750Z,87.20
2019-03-29T03:55:07.269Z,87.50
2019-03-29T03:57:37.818Z,87.70
2019-03-29T04:00:08.382Z,87.40
2019-03-29T04:02:36.975Z,88.30
2019-03-29T04:05:06.881Z,87.70
2019-03-29T04:07:35.388Z,88.00
2019-03-29T04:10:05.986Z,88.90
2019-03-29T04:12:34.540Z,88.10
2019-03-29T04:15:03.049Z,88.40
2019-03-29T04:17:31.598Z,88.30
2019-03-29T04:20:00.555Z,88.40
2019-03-29T04:22:29.202Z,88.50
2019-03-29T04:24:57.779Z,88.50
2019-03-29T04:27:26.359Z,88.60
2019-03-29T04:29:54.812Z,88.80
2019-03-29T04:32:23.351Z,88.80
2019-03-29T04:34:51.897Z,88.60
2019-03-29T04:37:20.435Z,88.70
2019-03-29T04:40:05.804Z,89.00
2019-03-29T04:42:19.294Z,89.10
2019-03-29T04:44:47.847Z,88.90
2019-03-29T04:47:16.304Z,88.80
2019-03-29T04:49:44.770Z,89.20
2019-03-29T04:52:13.231Z,89.00
2019-03-29T04:54:41.725Z,88.90
2019-03-29T04:57:10.170Z,89.10
2019-03-29T04:59:38.728Z,88.90
2019-03-29T05:02:07.170Z,88.70
2019-03-29T05:04:36.779Z,88.30
2019-03-29T05:07:07.589Z,88.40
2019-03-29T05:09:36.094Z,88.20
2019-03-29T05:12:04.580Z,88.20
2019-03-29T05:14:33.209Z,87.90
2019-03-29T05:17:01.694Z,87.90
2019-03-29T05:19:30.314Z,87.70
2019-03-29T05:21:58.806Z,87.80
2019-03-29T05:24:27.283Z,87.80
2019-03-29T05:26:56.052Z,87.90
2019-03-29T05:29:24.650Z,87.60
2019-03-29T05:31:53.740Z,87.60
2019-03-29T05:34:22.378Z,87.50
2019-03-29T05:36:50.945Z,88.00
2019-03-29T05:39:19.402Z,88.20
2019-03-29T05:41:48.040Z,88.30
2019-03-29T05:44:16.555Z,88.20
2019-03-29T05:46:45.117Z,87.90
2019-03-29T05:49:13.638Z,87.80
2019-03-29T05:51:42.265Z,88.00
2019-03-29T05:54:10.792Z,87.60
2019-03-29T05:56:39.357Z,87.50
2019-03-29T05:59:07.925Z,87.70
2019-03-29T06:01:36.454Z,87.80
2019-03-29T06:04:05.008Z,88.00
2019-03-29T06:06:33.522Z,87.60
2019-03-29T06:09:02.039Z,87.50
2019-03-29T06:11:30.513Z,87.30
2019-03-29T06:13:58.987Z,87.00
2019-03-29T06:16:38.395Z,86.70
2019-03-29T06:18:57.855Z,86.10
2019-03-29T06:21:26.313Z,86.00
2019-03-29T06:23:54.788Z,85.80
2019-03-29T06:26:23.284Z,85.40
2019-03-29T06:28:51.825Z,85.20
2019-03-29T06:31:20.366Z,84.90
2019-03-29T06:33:48.830Z,84.30
2019-03-29T06:36:17.756Z,84.30
2019-03-29T06:38:48.551Z,84.10
2019-03-29T06:41:17.123Z,83.80
2019-03-29T06:43:45.858Z,83.10
2019-03-29T06:46:14.388Z,83.10
2019-03-29T06:48:42.843Z,83.20
2019-03-29T06:51:11.343Z,82.10
2019-03-29T06:53:39.825Z,81.90
2019-03-29T06:56:08.365Z,81.80
2019-03-29T06:58:36.822Z,81.40
2019-03-29T07:01:05.298Z,80.70
2019-03-29T07:03:33.758Z,80.30
2019-03-29T07:06:02.435Z,79.90
2019-03-29T07:08:30.882Z,79.20
2019-03-29T07:10:59.368Z,79.10
2019-03-29T07:13:27.934Z,78.80
2019-03-29T07:15:56.437Z,78.40
2019-03-29T07:18:25.102Z,78.00
2019-03-29T07:20:53.553Z,77.10
2019-03-29T07:23:22.051Z,76.70
2019-03-29T07:25:50.681Z,76.50
2019-03-29T07:28:19.203Z,76.20
2019-03-29T07:30:47.735Z,76.10
2019-03-29T07:33:16.199Z,75.80
2019-03-29T07:35:44.723Z,75.30
2019-03-29T07:38:13.163Z,75.30
2019-03-29T07:40:41.724Z,74.50
2019-03-29T07:43:10.239Z,74.10
2019-03-29T07:45:38.973Z,74.00
2019-03-29T07:48:07.422Z,74.00
2019-03-29T07:50:35.901Z,74.00
2019-03-29T07:53:04.560Z,73.50
2019-03-29T07:55:33.055Z,72.10
2019-03-29T07:58:01.542Z,72.50
2019-03-29T08:00:30.101Z,70.90
2019-03-29T08:02:58.859Z,70.40
2019-03-29T08:05:27.381Z,69.80
2019-03-29T08:07:55.934Z,69.90
2019-03-29T08:10:29.105Z,69.60
2019-03-29T08:12:54.741Z,69.00
2019-03-29T08:15:23.209Z,68.10
2019-03-29T08:17:51.810Z,68.60
2019-03-29T08:22:50.751Z,67.80
2019-03-29T08:25:19.286Z,68.60
2019-03-29T08:27:47.764Z,67.80
2019-03-29T08:30:16.264Z,67.10
2019-03-29T08:32:44.843Z,67.00
2019-03-29T08:35:13.537Z,65.90
2019-03-29T08:37:42.156Z,65.90
2019-03-29T08:40:10.745Z,65.50
2019-03-29T08:42:39.217Z,65.00
2019-03-29T08:45:08.213Z,64.60
2019-03-29T08:47:36.940Z,64.30
2019-03-29T08:50:07.186Z,64.00
2019-03-29T08:52:35.754Z,64.70
2019-03-29T08:55:05.979Z,63.90
2019-03-29T08:57:34.677Z,63.40
2019-03-29T09:00:03.976Z,62.80
2019-03-29T09:02:32.649Z,62.50
2019-03-29T09:05:01.156Z,62.50
2019-03-29T09:07:43.921Z,61.60
2019-03-29T09:10:01.148Z,61.80
2019-03-29T09:12:29.699Z,61.20
2019-03-29T09:14:58.183Z,60.30
2019-03-29T09:17:26.816Z,60.10
2019-03-29T09:19:55.322Z,59.80
2019-03-29T09:22:23.874Z,59.50
2019-03-29T09:24:52.455Z,59.50
2019-03-29T09:27:20.903Z,59.30
2019-03-29T09:29:49.543Z,59.30
2019-03-29T09:32:18.250Z,58.70
2019-03-29T09:35:05.395Z,57.90
2019-03-29T09:37:33.838Z,58.30
2019-03-29T09:40:02.499Z,58.70
2019-03-29T09:42:31.017Z,58.20
2019-03-29T09:44:59.583Z,56.70
2019-03-29T09:47:28.175Z,56.50
2019-03-29T09:49:56.672Z,56.60
2019-03-29T09:52:25.724Z,55.40
2019-03-29T09:54:54.253Z,55.80
2019-03-29T09:57:36.054Z,55.80
2019-03-29T09:59:53.044Z,54.90
2019-03-29T10:02:21.518Z,54.70
2019-03-29T10:04:49.969Z,54.70
2019-03-29T10:07:21.444Z,54.60
2019-03-29T10:09:49.980Z,53.10
2019-03-29T10:12:18.523Z,53.00
2019-03-29T10:14:47.199Z,52.10
2019-03-29T10:17:15.700Z,52.10
2019-03-29T10:19:44.251Z,51.90
2019-03-29T10:22:12.819Z,51.30
2019-03-29T10:24:41.315Z,51.40
2019-03-29T10:27:09.929Z,50.60
2019-03-29T10:29:38.408Z,50.20
2019-03-29T10:32:09.405Z,50.60
2019-03-29T10:34:37.637Z,50.60
2019-03-29T10:37:06.468Z,51.00
2019-03-29T10:39:35.766Z,50.30
2019-03-29T10:42:04.891Z,49.00
2019-03-29T10:44:33.410Z,49.40
2019-03-29T10:47:02.026Z,49.60
2019-03-29T10:49:30.622Z,49.00
2019-03-29T10:51:59.184Z,49.10
2019-03-29T10:54:27.815Z,48.00
2019-03-29T10:56:57.248Z,48.70
2019-03-29T10:59:27.633Z,48.50
2019-03-29T11:01:56.071Z,47.60
2019-03-29T11:04:24.524Z,48.10
2019-03-29T11:06:53.298Z,48.30
2019-03-29T11:09:21.753Z,47.60
2019-03-29T11:11:50.207Z,47.90
2019-03-29T11:14:18.695Z,47.60
2019-03-29T11:16:47.275Z,47.70
2019-03-29T11:19:15.816Z,47.20
2019-03-29T11:21:44.305Z,47.00
2019-03-29T11:24:13.024Z,45.00
2019-03-29T11:26:41.525Z,45.20
2019-03-29T11:29:10.010Z,45.30
2019-03-29T11:31:38.695Z,45.20
2019-03-29T11:34:07.261Z,44.40
2019-03-29T11:36:35.779Z,44.20
2019-03-29T11:39:06.549Z,43.90
2019-03-29T11:41:35.011Z,44.20
2019-03-29T11:44:03.490Z,44.70
2019-03-29T11:46:32.000Z,44.30
2019-03-29T11:49:00.540Z,43.90
2019-03-29T11:51:29.043Z,45.00
2019-03-29T11:53:57.565Z,43.90
2019-03-29T11:56:26.077Z,44.00
2019-03-29T11:58:54.559Z,44.00
2019-03-29T12:01:23.000Z,43.30
2019-03-29T12:03:51.569Z,43.80
2019-03-29T12:06:20.076Z,43.50
2019-03-29T12:08:48.575Z,43.70
2019-03-29T12:11:17.021Z,43.60
2019-03-29T12:13:45.852Z,44.20
2019-03-29T12:16:14.373Z,44.30
2019-03-29T12:18:42.855Z,43.50
2019-03-29T12:21:11.390Z,43.60
2019-03-29T12:23:39.995Z,43.40
2019-03-29T12:26:08.536Z,43.80
2019-03-29T12:28:37.077Z,43.50
2019-03-29T12:31:05.746Z,42.20
2019-03-29T12:33:34.331Z,41.80
2019-03-29T12:36:02.881Z,42.40
2019-03-29T12:38:31.402Z,42.80
2019-03-29T12:40:59.893Z,43.30
2019-03-29T12:43:28.334Z,42.70
2019-03-29T12:45:56.906Z,42.30
2019-03-29T12:48:25.378Z,42.50
2019-03-29T12:50:53.860Z,43.20
2019-03-29T12:53:22.370Z,43.00
2019-03-29T12:55:50.941Z,42.40
2019-03-29T12:58:19.402Z,43.30
2019-03-29T13:00:47.918Z,41.70
2019-03-29T13:03:16.603Z,41.80
2019-03-29T13:05:45.119Z,41.80
2019-03-29T13:08:13.696Z,41.70
2019-03-29T13:10:42.725Z,41.30
2019-03-29T13:13:11.448Z,41.30
2019-03-29T13:15:39.996Z,41.10
2019-03-29T13:18:08.481Z,41.70
2019-03-29T13:20:37.154Z,41.30
2019-03-29T13:23:06.034Z,41.10
2019-03-29T13:25:34.498Z,40.60
2019-03-29T13:28:03.023Z,40.60
2019-03-29T13:30:31.501Z,41.00
2019-03-29T13:33:00.071Z,40.20
2019-03-29T13:35:28.570Z,39.70
2019-03-29T13:37:57.134Z,39.80
2019-03-29T13:40:25.724Z,39.70
2019-03-29T13:42:54.191Z,39.60
2019-03-29T13:45:22.718Z,40.00
2019-03-29T13:47:51.191Z,39.80
2019-03-29T13:50:19.743Z,39.80
2019-03-29T13:52:48.187Z,39.90
2019-03-29T13:55:16.736Z,40.60
2019-03-29T13:57:45.189Z,39.60
2019-03-29T14:00:13.977Z,38.90
2019-03-29T14:02:42.533Z,39.10
2019-03-29T14:05:11.043Z,40.40
2019-03-29T14:07:39.609Z,39.40
2019-03-29T14:10:09.145Z,38.60
2019-03-29T14:12:39.033Z,38.80
2019-03-29T14:15:10.599Z,38.80
2019-03-29T14:17:39.080Z,38.70
2019-03-29T14:20:08.457Z,38.70
2019-03-29T14:22:37.014Z,38.90
2019-03-29T14:25:07.103Z,39.20
2019-03-29T14:27:35.727Z,38.70
2019-03-29T14:30:06.606Z,38.70
2019-03-29T14:32:37.880Z,38.90
2019-03-29T14:35:07.938Z,38.60
2019-03-29T14:37:36.461Z,38.10
2019-03-29T14:40:07.664Z,38.20
2019-03-29T14:42:36.344Z,38.40
2019-03-29T14:45:07.334Z,37.90
2019-03-29T14:47:41.384Z,38.30
2019-03-29T14:50:07.608Z,38.10
2019-03-29T14:52:36.205Z,38.50
2019-03-29T14:55:05.719Z,38.10
2019-03-29T14:57:34.230Z,38.70
2019-03-29T15:00:03.130Z,38.40
2019-03-29T15:02:31.771Z,38.40
2019-03-29T15:05:02.174Z,38.10
2019-03-29T15:07:30.707Z,39.10
2019-03-29T15:09:59.526Z,38.10
2019-03-29T15:12:28.057Z,38.30
2019-03-29T15:15:05.970Z,38.60
2019-03-29T15:17:26.915Z,37.70
2019-03-29T15:19:55.391Z,37.70
2019-03-29T15:22:23.949Z,38.20
2019-03-29T15:24:52.613Z,38.50
2019-03-29T15:27:22.182Z,37.80
2019-03-29T15:29:50.728Z,37.40
2019-03-29T15:32:19.339Z,37.60
2019-03-29T15:34:47.835Z,37.30
2019-03-29T15:37:16.464Z,37.80
2019-03-29T15:39:45.085Z,37.70
2019-03-29T15:42:13.633Z,37.70
2019-03-29T15:44:42.134Z,37.10
2019-03-29T15:47:10.791Z,37.20
2019-03-29T15:49:39.344Z,36.90
2019-03-29T15:52:08.019Z,37.60
2019-03-29T15:54:36.519Z,37.60
2019-03-29T15:57:05.066Z,37.40
2019-03-29T15:59:33.692Z,37.60
2019-03-29T16:02:02.186Z,37.30
2019-03-29T16:04:30.725Z,37.10
2019-03-29T16:07:00.938Z,37.10
2019-03-29T16:09:29.544Z,36.80
2019-03-29T16:11:58.145Z,37.60
2019-03-29T16:14:26.719Z,37.30
2019-03-29T16:16:55.351Z,37.20
2019-03-29T16:19:23.850Z,37.10
2019-03-29T16:21:52.385Z,37.20
2019-03-29T16:24:20.959Z,37.80
2019-03-29T16:26:49.543Z,38.10
2019-03-29T16:29:18.035Z,37.50
2019-03-29T16:31:46.546Z,37.70
2019-03-29T16:34:15.236Z,37.80
2019-03-29T16:36:43.693Z,37.40
2019-03-29T16:39:13.811Z,38.00
2019-03-29T16:41:42.278Z,38.60
2019-03-29T16:44:10.912Z,38.00
2019-03-29T16:46:39.427Z,38.00
2019-03-29T16:49:08.081Z,37.80
2019-03-29T16:51:36.999Z,38.00
2019-03-29T16:54:05.949Z,37.90
2019-03-29T16:56:34.584Z,38.10
2019-03-29T16:59:03.433Z,38.60
2019-03-29T17:01:31.993Z,38.90
2019-03-29T17:04:00.468Z,38.40
2019-03-29T17:06:28.999Z,38.50
2019-03-29T17:08:57.571Z,38.40
2019-03-29T17:11:26.148Z,38.60
2019-03-29T17:13:54.691Z,38.80
2019-03-29T17:16:30.161Z,38.80
2019-03-29T17:18:53.441Z,39.10
2019-03-29T17:21:21.931Z,39.40
2019-03-29T17:23:52.661Z,39.70
2019-03-29T17:26:20.655Z,39.20
2019-03-29T17:28:49.421Z,39.10
2019-03-29T17:31:18.496Z,39.20
2019-03-29T17:33:47.118Z,39.20
2019-03-29T17:36:15.681Z,39.10
2019-03-29T17:38:44.335Z,39.10
2019-03-29T17:41:12.872Z,39.40
2019-03-29T17:43:41.739Z,39.60
2019-03-29T17:46:16.709Z,39.70
2019-03-29T17:48:40.737Z,39.30
2019-03-29T17:51:09.336Z,39.60
2019-03-29T17:53:37.987Z,39.60
2019-03-29T17:56:06.470Z,39.60
2019-03-29T17:58:34.956Z,39.70
2019-03-29T18:01:03.495Z,39.30
2019-03-29T18:03:31.954Z,39.30
2019-03-29T18:06:00.442Z,39.60
2019-03-29T18:08:29.037Z,39.70
2019-03-29T18:10:57.569Z,39.80
2019-03-29T18:13:26.026Z,40.00
2019-03-29T18:15:54.550Z,40.00
2019-03-29T18:18:22.997Z,40.10
2019-03-29T18:20:51.803Z,40.40
2019-03-29T18:23:20.242Z,40.40
2019-03-29T18:25:48.789Z,40.40
2019-03-29T18:28:17.434Z,40.60
2019-03-29T18:30:46.243Z,40.90
2019-03-29T18:33:14.793Z,40.90
2019-03-29T18:35:43.368Z,41.00
2019-03-29T18:38:12.979Z,41.30
2019-03-29T18:40:41.611Z,41.60
2019-03-29T18:43:10.192Z,41.70
2019-03-29T18:45:41.471Z,41.70
2019-03-29T18:48:08.910Z,41.90
2019-03-29T18:50:37.480Z,42.10
2019-03-29T18:53:05.968Z,42.30
2019-03-29T18:55:34.579Z,42.50
2019-03-29T18:58:05.774Z,42.70
2019-03-29T19:00:34.447Z,43.00
2019-03-29T19:03:03.150Z,43.30
2019-03-29T19:05:32.220Z,43.30
2019-03-29T19:08:00.823Z,43.40
2019-03-29T19:10:29.430Z,43.70
2019-03-29T19:12:58.132Z,43.70
2019-03-29T19:15:26.774Z,43.70
2019-03-29T19:17:55.495Z,43.90
2019-03-29T19:20:27.845Z,44.00
2019-03-29T19:22:54.554Z,44.30
2019-03-29T19:25:23.074Z,44.50
2019-03-29T19:27:51.543Z,44.70
2019-03-29T19:30:20.584Z,44.80
2019-03-29T19:32:49.164Z,44.90
2019-03-29T19:35:17.635Z,45.20
2019-03-29T19:37:46.389Z,45.20
2019-03-29T19:40:15.075Z,45.60
2019-03-29T19:42:43.716Z,45.80
2019-03-29T19:45:12.518Z,45.90
2019-03-29T19:47:41.057Z,46.30
2019-03-29T19:50:10.079Z,46.30
2019-03-29T19:52:38.615Z,46.30
2019-03-29T19:55:07.265Z,46.70
2019-03-29T19:57:35.834Z,46.80
2019-03-29T20:00:07.847Z,47.90
2019-03-29T20:02:36.668Z,47.20
2019-03-29T20:05:08.283Z,47.40
2019-03-29T20:07:36.814Z,47.80
2019-03-29T20:10:07.551Z,47.80
2019-03-29T20:12:36.159Z,48.50
2019-03-29T20:15:06.703Z,47.80
2019-03-29T20:17:35.433Z,48.40
2019-03-29T20:20:05.853Z,49.00
2019-03-29T20:22:34.515Z,49.70
2019-03-29T20:25:03.122Z,50.30
2019-03-29T20:27:31.582Z,50.80
2019-03-29T20:30:00.315Z,50.90
2019-03-29T20:32:28.934Z,51.10
2019-03-29T20:34:57.379Z,51.60
2019-03-29T20:37:25.939Z,52.10
2019-03-29T20:39:54.487Z,52.30
2019-03-29T20:42:24.911Z,52.60
2019-03-29T20:44:53.401Z,52.60
2019-03-29T20:47:22.031Z,52.80
2019-03-29T20:49:50.573Z,52.80
2019-03-29T20:52:19.060Z,52.90
2019-03-29T20:54:47.546Z,52.90
2019-03-29T20:57:16.159Z,53.10
2019-03-29T20:59:44.695Z,53.00
2019-03-29T21:02:13.258Z,53.10
2019-03-29T21:04:41.703Z,53.30
2019-03-29T21:07:10.274Z,53.40
2019-03-29T21:09:38.799Z,53.50
2019-03-29T21:12:07.395Z,53.60
2019-03-29T21:14:35.969Z,53.50
2019-03-29T21:17:04.596Z,53.50
2019-03-29T21:19:33.147Z,53.60
2019-03-29T21:22:01.614Z,53.80
2019-03-29T21:24:30.138Z,53.80
2019-03-29T21:26:58.622Z,53.70
2019-03-29T21:29:27.299Z,53.70
2019-03-29T21:31:55.844Z,53.90
2019-03-29T21:34:24.405Z,54.10
2019-03-29T21:36:52.975Z,54.30
2019-03-29T21:39:21.759Z,54.30
2019-03-29T21:41:50.484Z,53.90
2019-03-29T21:44:19.142Z,53.80
2019-03-29T21:46:47.809Z,53.80
2019-03-29T21:49:16.561Z,53.90
2019-03-29T21:51:45.122Z,53.90
2019-03-29T21:54:13.702Z,54.00
2019-03-29T21:56:42.503Z,54.10
2019-03-29T21:59:11.046Z,54.30
2019-03-29T22:01:39.512Z,54.30
2019-03-29T22:04:08.175Z,54.50
2019-03-29T22:06:36.718Z,54.70
2019-03-29T22:09:07.498Z,54.70
2019-03-29T22:11:36.019Z,54.80
2019-03-29T22:14:04.674Z,54.70
2019-03-29T22:16:33.323Z,54.90
2019-03-29T22:19:01.887Z,54.90
2019-03-29T22:21:30.383Z,55.20
2019-03-29T22:23:58.847Z,55.20
2019-03-29T22:26:27.358Z,55.30
2019-03-29T22:28:56.052Z,55.30
2019-03-29T22:31:24.559Z,56.10
2019-03-29T22:33:53.008Z,55.40
2019-03-29T22:36:21.566Z,55.50
2019-03-29T22:38:50.169Z,55.60
2019-03-29T22:41:18.704Z,55.80
2019-03-29T22:43:47.436Z,56.40
2019-03-29T22:46:16.006Z,56.90
2019-03-29T22:48:52.175Z,58.00
2019-03-29T22:51:15.045Z,59.90
2019-03-29T22:53:43.490Z,61.80
2019-03-29T22:56:12.113Z,63.90
2019-03-29T22:58:40.803Z,64.50
2019-03-29T23:01:09.387Z,65.20
2019-03-29T23:03:37.938Z,65.60
2019-03-29T23:06:06.489Z,66.70
2019-03-29T23:08:34.945Z,66.60
2019-03-29T23:11:03.799Z,67.10
2019-03-29T23:13:34.300Z,68.30
2019-03-29T23:16:02.738Z,68.40
2019-03-29T23:18:31.204Z,68.90
2019-03-29T23:20:59.761Z,69.90
2019-03-29T23:23:28.200Z,70.40
2019-03-29T23:25:56.663Z,71.30
2019-03-29T23:28:26.261Z,71.40
2019-03-29T23:30:54.849Z,71.70
2019-03-29T23:33:23.715Z,71.20
2019-03-29T23:35:52.213Z,71.30
2019-03-29T23:38:20.822Z,70.60
2019-03-29T23:40:49.263Z,71.20
2019-03-29T23:43:17.822Z,70.80
2019-03-29T23:45:46.292Z,71.90
2019-03-29T23:48:14.821Z,71.80
2019-03-29T23:50:43.252Z,71.70
2019-03-29T23:53:11.869Z,71.30
2019-03-29T23:55:40.353Z,71.10
2019-03-29T23:58:08.834Z,70.90
